sensor_id;sensor_type;location;lat;lon;timestamp;P1;durP1;ratioP1;P2;durP2;ratioP2
71106;SDS011;58763;47.982;11.516;2023-03-26T00:00:56;3.58;;;0.80;;
71106;SDS011;58763;47.982;11.516;2023-03-26T00:03:22;3.85;;;0.70;;
71106;SDS011;58763;47.982;11.516;2023-03-26T00:05:47;2.78;;;0.52;;
71106;SDS011;58763;47.982;11.516;2023-03-26T00:08:14;4.68;;;0.73;;
71106;SDS011;58763;47.982;11.516;2023-03-26T00:10:41;4.80;;;0.77;;
71106;SDS011;58763;47.982;11.516;2023-03-26T00:13:07;2.65;;;0.70;;
71106;SDS011;58763;47.982;11.516;2023-03-26T00:15:34;2.83;;;0.70;;
71106;SDS011;58763;47.982;11.516;2023-03-26T00:18:02;3.75;;;0.80;;
71106;SDS011;58763;47.982;11.516;2023-03-26T00:20:28;2.22;;;0.63;;
71106;SDS011;58763;47.982;11.516;2023-03-26T00:22:56;4.70;;;0.70;;
71106;SDS011;58763;47.982;11.516;2023-03-26T00:25:25;2.20;;;0.63;;
71106;SDS011;58763;47.982;11.516;2023-03-26T00:27:52;2.80;;;0.75;;
71106;SDS011;58763;47.982;11.516;2023-03-26T00:30:18;4.00;;;0.90;;
71106;SDS011;58763;47.982;11.516;2023-03-26T00:32:44;2.38;;;0.60;;
71106;SDS011;58763;47.982;11.516;2023-03-26T00:35:10;4.38;;;0.90;;
71106;SDS011;58763;47.982;11.516;2023-03-26T00:37:37;5.60;;;1.05;;
71106;SDS011;58763;47.982;11.516;2023-03-26T00:40:03;2.53;;;0.60;;
71106;SDS011;58763;47.982;11.516;2023-03-26T00:42:35;4.55;;;0.82;;
71106;SDS011;58763;47.982;11.516;2023-03-26T00:45:06;2.97;;;0.70;;
71106;SDS011;58763;47.982;11.516;2023-03-26T00:47:32;3.20;;;0.80;;
71106;SDS011;58763;47.982;11.516;2023-03-26T00:49:59;4.13;;;0.73;;
71106;SDS011;58763;47.982;11.516;2023-03-26T00:52:25;3.88;;;1.00;;
71106;SDS011;58763;47.982;11.516;2023-03-26T00:54:52;6.65;;;1.00;;
71106;SDS011;58763;47.982;11.516;2023-03-26T00:57:19;3.53;;;0.93;;
71106;SDS011;58763;47.982;11.516;2023-03-26T00:59:46;3.90;;;0.95;;
71106;SDS011;58763;47.982;11.516;2023-03-26T01:02:14;3.72;;;0.88;;
71106;SDS011;58763;47.982;11.516;2023-03-26T01:04:45;5.60;;;1.23;;
71106;SDS011;58763;47.982;11.516;2023-03-26T01:07:23;3.67;;;0.70;;
71106;SDS011;58763;47.982;11.516;2023-03-26T01:09:54;5.43;;;0.90;;
71106;SDS011;58763;47.982;11.516;2023-03-26T01:12:23;6.30;;;0.80;;
71106;SDS011;58763;47.982;11.516;2023-03-26T01:14:51;3.90;;;0.90;;
71106;SDS011;58763;47.982;11.516;2023-03-26T01:17:19;2.53;;;0.80;;
71106;SDS011;58763;47.982;11.516;2023-03-26T01:25:04;6.50;;;0.80;;
71106;SDS011;58763;47.982;11.516;2023-03-26T01:27:38;4.97;;;1.00;;
71106;SDS011;58763;47.982;11.516;2023-03-26T01:33:07;3.63;;;0.90;;
71106;SDS011;58763;47.982;11.516;2023-03-26T01:35:51;3.42;;;0.75;;
71106;SDS011;58763;47.982;11.516;2023-03-26T01:38:24;3.28;;;0.88;;
71106;SDS011;58763;47.982;11.516;2023-03-26T01:41:03;3.95;;;0.88;;
71106;SDS011;58763;47.982;11.516;2023-03-26T01:46:40;4.10;;;0.93;;
71106;SDS011;58763;47.982;11.516;2023-03-26T01:49:07;3.10;;;0.80;;
71106;SDS011;58763;47.982;11.516;2023-03-26T01:51:37;5.35;;;1.00;;
71106;SDS011;58763;47.982;11.516;2023-03-26T01:54:05;5.82;;;1.00;;
71106;SDS011;58763;47.982;11.516;2023-03-26T01:56:38;4.53;;;0.90;;
71106;SDS011;58763;47.982;11.516;2023-03-26T02:01:56;3.83;;;0.98;;
71106;SDS011;58763;47.982;11.516;2023-03-26T02:04:41;3.30;;;1.00;;
71106;SDS011;58763;47.982;11.516;2023-03-26T02:10:43;6.32;;;1.00;;
71106;SDS011;58763;47.982;11.516;2023-03-26T02:13:02;2.60;;;0.80;;
71106;SDS011;58763;47.982;11.516;2023-03-26T02:15:30;5.80;;;1.20;;
71106;SDS011;58763;47.982;11.516;2023-03-26T02:17:55;4.65;;;0.93;;
71106;SDS011;58763;47.982;11.516;2023-03-26T02:20:23;4.20;;;1.00;;
71106;SDS011;58763;47.982;11.516;2023-03-26T02:22:54;7.22;;;1.05;;
71106;SDS011;58763;47.982;11.516;2023-03-26T02:25:20;5.93;;;1.02;;
71106;SDS011;58763;47.982;11.516;2023-03-26T02:27:46;4.32;;;0.80;;
71106;SDS011;58763;47.982;11.516;2023-03-26T02:30:15;6.15;;;1.17;;
71106;SDS011;58763;47.982;11.516;2023-03-26T02:32:43;7.23;;;1.13;;
71106;SDS011;58763;47.982;11.516;2023-03-26T02:35:10;3.60;;;0.80;;
71106;SDS011;58763;47.982;11.516;2023-03-26T02:37:36;4.65;;;0.90;;
71106;SDS011;58763;47.982;11.516;2023-03-26T02:40:02;4.95;;;0.93;;
71106;SDS011;58763;47.982;11.516;2023-03-26T02:42:30;5.65;;;1.02;;
71106;SDS011;58763;47.982;11.516;2023-03-26T02:44:55;6.68;;;1.38;;
71106;SDS011;58763;47.982;11.516;2023-03-26T02:47:21;5.18;;;1.45;;
71106;SDS011;58763;47.982;11.516;2023-03-26T02:49:46;6.30;;;1.20;;
71106;SDS011;58763;47.982;11.516;2023-03-26T02:52:12;6.97;;;1.33;;
71106;SDS011;58763;47.982;11.516;2023-03-26T02:54:41;5.35;;;1.15;;
71106;SDS011;58763;47.982;11.516;2023-03-26T02:57:06;4.70;;;1.00;;
71106;SDS011;58763;47.982;11.516;2023-03-26T02:59:32;3.00;;;0.80;;
71106;SDS011;58763;47.982;11.516;2023-03-26T03:01:57;5.32;;;0.93;;
71106;SDS011;58763;47.982;11.516;2023-03-26T03:04:23;3.72;;;0.82;;
71106;SDS011;58763;47.982;11.516;2023-03-26T03:06:49;6.55;;;1.10;;
71106;SDS011;58763;47.982;11.516;2023-03-26T03:09:17;4.63;;;0.95;;
71106;SDS011;58763;47.982;11.516;2023-03-26T03:11:43;5.03;;;0.90;;
71106;SDS011;58763;47.982;11.516;2023-03-26T03:14:08;6.53;;;1.20;;
71106;SDS011;58763;47.982;11.516;2023-03-26T03:16:34;4.88;;;0.90;;
71106;SDS011;58763;47.982;11.516;2023-03-26T03:18:59;4.32;;;1.02;;
71106;SDS011;58763;47.982;11.516;2023-03-26T03:21:26;4.68;;;0.90;;
71106;SDS011;58763;47.982;11.516;2023-03-26T03:23:53;4.28;;;0.90;;
71106;SDS011;58763;47.982;11.516;2023-03-26T03:26:20;6.70;;;1.02;;
71106;SDS011;58763;47.982;11.516;2023-03-26T03:28:47;6.32;;;1.20;;
71106;SDS011;58763;47.982;11.516;2023-03-26T03:31:14;5.35;;;1.20;;
71106;SDS011;58763;47.982;11.516;2023-03-26T03:33:41;5.28;;;0.90;;
71106;SDS011;58763;47.982;11.516;2023-03-26T03:36:10;4.85;;;1.00;;
71106;SDS011;58763;47.982;11.516;2023-03-26T03:38:39;7.72;;;1.13;;
71106;SDS011;58763;47.982;11.516;2023-03-26T03:41:06;4.22;;;0.98;;
71106;SDS011;58763;47.982;11.516;2023-03-26T03:43:33;6.28;;;1.10;;
71106;SDS011;58763;47.982;11.516;2023-03-26T03:45:59;5.03;;;1.10;;
71106;SDS011;58763;47.982;11.516;2023-03-26T03:48:25;28.17;;;10.05;;
71106;SDS011;58763;47.982;11.516;2023-03-26T03:50:52;10.38;;;2.33;;
71106;SDS011;58763;47.982;11.516;2023-03-26T03:53:19;5.60;;;1.00;;
71106;SDS011;58763;47.982;11.516;2023-03-26T03:55:45;4.50;;;0.82;;
71106;SDS011;58763;47.982;11.516;2023-03-26T03:58:19;7.65;;;1.25;;
71106;SDS011;58763;47.982;11.516;2023-03-26T04:00:46;6.30;;;0.93;;
71106;SDS011;58763;47.982;11.516;2023-03-26T04:03:16;7.07;;;1.23;;
71106;SDS011;58763;47.982;11.516;2023-03-26T04:05:43;4.93;;;0.88;;
71106;SDS011;58763;47.982;11.516;2023-03-26T04:08:14;4.47;;;1.02;;
71106;SDS011;58763;47.982;11.516;2023-03-26T04:10:41;6.82;;;1.50;;
71106;SDS011;58763;47.982;11.516;2023-03-26T04:13:08;6.65;;;1.02;;
71106;SDS011;58763;47.982;11.516;2023-03-26T04:15:37;5.15;;;1.17;;
71106;SDS011;58763;47.982;11.516;2023-03-26T04:18:03;5.38;;;1.17;;
71106;SDS011;58763;47.982;11.516;2023-03-26T04:20:35;7.95;;;1.38;;
71106;SDS011;58763;47.982;11.516;2023-03-26T04:23:06;3.13;;;0.88;;
71106;SDS011;58763;47.982;11.516;2023-03-26T04:25:33;4.38;;;0.88;;
71106;SDS011;58763;47.982;11.516;2023-03-26T04:28:04;7.10;;;1.10;;
71106;SDS011;58763;47.982;11.516;2023-03-26T04:33:01;5.68;;;1.10;;
71106;SDS011;58763;47.982;11.516;2023-03-26T04:35:31;6.35;;;1.20;;
71106;SDS011;58763;47.982;11.516;2023-03-26T04:38:03;5.07;;;0.93;;
71106;SDS011;58763;47.982;11.516;2023-03-26T04:40:32;4.95;;;0.90;;
71106;SDS011;58763;47.982;11.516;2023-03-26T04:43:01;4.63;;;0.98;;
71106;SDS011;58763;47.982;11.516;2023-03-26T04:45:27;4.03;;;0.93;;
71106;SDS011;58763;47.982;11.516;2023-03-26T04:47:57;5.70;;;1.23;;
71106;SDS011;58763;47.982;11.516;2023-03-26T04:50:23;4.70;;;0.85;;
71106;SDS011;58763;47.982;11.516;2023-03-26T04:52:51;6.68;;;1.25;;
71106;SDS011;58763;47.982;11.516;2023-03-26T04:55:24;6.18;;;1.08;;
71106;SDS011;58763;47.982;11.516;2023-03-26T04:57:56;6.78;;;1.20;;
71106;SDS011;58763;47.982;11.516;2023-03-26T05:00:24;4.35;;;0.90;;
71106;SDS011;58763;47.982;11.516;2023-03-26T05:02:50;4.78;;;0.95;;
71106;SDS011;58763;47.982;11.516;2023-03-26T05:05:18;4.60;;;0.90;;
71106;SDS011;58763;47.982;11.516;2023-03-26T05:07:43;7.32;;;1.25;;
71106;SDS011;58763;47.982;11.516;2023-03-26T05:10:13;4.80;;;0.93;;
71106;SDS011;58763;47.982;11.516;2023-03-26T05:12:40;2.80;;;0.85;;
71106;SDS011;58763;47.982;11.516;2023-03-26T05:15:06;5.07;;;0.93;;
71106;SDS011;58763;47.982;11.516;2023-03-26T05:17:33;5.00;;;1.10;;
71106;SDS011;58763;47.982;11.516;2023-03-26T05:20:05;3.85;;;1.13;;
71106;SDS011;58763;47.982;11.516;2023-03-26T05:22:50;4.90;;;1.00;;
71106;SDS011;58763;47.982;11.516;2023-03-26T05:25:17;4.78;;;1.05;;
71106;SDS011;58763;47.982;11.516;2023-03-26T05:27:43;6.40;;;0.90;;
71106;SDS011;58763;47.982;11.516;2023-03-26T05:30:12;5.95;;;1.10;;
71106;SDS011;58763;47.982;11.516;2023-03-26T05:32:41;6.45;;;1.27;;
71106;SDS011;58763;47.982;11.516;2023-03-26T05:35:07;6.20;;;1.10;;
71106;SDS011;58763;47.982;11.516;2023-03-26T05:37:33;4.22;;;0.98;;
71106;SDS011;58763;47.982;11.516;2023-03-26T05:39:59;4.50;;;1.00;;
71106;SDS011;58763;47.982;11.516;2023-03-26T05:42:25;8.50;;;1.50;;
71106;SDS011;58763;47.982;11.516;2023-03-26T05:44:51;4.50;;;1.00;;
71106;SDS011;58763;47.982;11.516;2023-03-26T05:47:16;3.90;;;1.00;;
71106;SDS011;58763;47.982;11.516;2023-03-26T05:49:43;5.80;;;1.00;;
71106;SDS011;58763;47.982;11.516;2023-03-26T05:52:10;4.45;;;0.90;;
71106;SDS011;58763;47.982;11.516;2023-03-26T05:54:40;6.88;;;1.88;;
71106;SDS011;58763;47.982;11.516;2023-03-26T05:57:06;4.35;;;1.17;;
71106;SDS011;58763;47.982;11.516;2023-03-26T05:59:31;4.13;;;1.15;;
71106;SDS011;58763;47.982;11.516;2023-03-26T06:01:57;9.43;;;1.30;;
71106;SDS011;58763;47.982;11.516;2023-03-26T06:04:23;3.33;;;1.30;;
71106;SDS011;58763;47.982;11.516;2023-03-26T06:06:49;5.63;;;1.60;;
71106;SDS011;58763;47.982;11.516;2023-03-26T06:09:16;6.60;;;1.20;;
71106;SDS011;58763;47.982;11.516;2023-03-26T06:11:42;6.15;;;1.10;;
71106;SDS011;58763;47.982;11.516;2023-03-26T06:14:08;5.13;;;1.20;;
71106;SDS011;58763;47.982;11.516;2023-03-26T06:16:34;3.10;;;1.00;;
71106;SDS011;58763;47.982;11.516;2023-03-26T06:18:59;4.30;;;1.00;;
71106;SDS011;58763;47.982;11.516;2023-03-26T06:21:25;4.25;;;0.90;;
71106;SDS011;58763;47.982;11.516;2023-03-26T06:23:52;5.13;;;1.00;;
71106;SDS011;58763;47.982;11.516;2023-03-26T06:26:18;5.90;;;1.33;;
71106;SDS011;58763;47.982;11.516;2023-03-26T06:28:44;5.47;;;1.30;;
71106;SDS011;58763;47.982;11.516;2023-03-26T06:31:10;5.10;;;1.10;;
71106;SDS011;58763;47.982;11.516;2023-03-26T06:33:36;10.20;;;1.15;;
71106;SDS011;58763;47.982;11.516;2023-03-26T06:36:01;6.82;;;1.13;;
71106;SDS011;58763;47.982;11.516;2023-03-26T06:38:28;4.93;;;1.00;;
71106;SDS011;58763;47.982;11.516;2023-03-26T06:40:53;5.97;;;1.30;;
71106;SDS011;58763;47.982;11.516;2023-03-26T06:43:19;7.30;;;1.02;;
71106;SDS011;58763;47.982;11.516;2023-03-26T06:45:48;7.00;;;1.27;;
71106;SDS011;58763;47.982;11.516;2023-03-26T06:48:15;4.57;;;1.20;;
71106;SDS011;58763;47.982;11.516;2023-03-26T06:50:40;8.93;;;1.35;;
71106;SDS011;58763;47.982;11.516;2023-03-26T06:53:07;7.60;;;1.48;;
71106;SDS011;58763;47.982;11.516;2023-03-26T06:55:33;8.02;;;1.60;;
71106;SDS011;58763;47.982;11.516;2023-03-26T06:57:58;6.40;;;1.20;;
71106;SDS011;58763;47.982;11.516;2023-03-26T07:00:24;3.42;;;1.13;;
71106;SDS011;58763;47.982;11.516;2023-03-26T07:02:50;6.28;;;1.55;;
71106;SDS011;58763;47.982;11.516;2023-03-26T07:05:15;6.70;;;1.40;;
71106;SDS011;58763;47.982;11.516;2023-03-26T07:07:41;4.78;;;1.40;;
71106;SDS011;58763;47.982;11.516;2023-03-26T07:10:07;7.50;;;1.80;;
71106;SDS011;58763;47.982;11.516;2023-03-26T07:12:33;3.63;;;1.13;;
71106;SDS011;58763;47.982;11.516;2023-03-26T07:15:00;6.20;;;1.92;;
71106;SDS011;58763;47.982;11.516;2023-03-26T07:17:27;6.57;;;2.20;;
71106;SDS011;58763;47.982;11.516;2023-03-26T07:19:52;7.50;;;2.85;;
71106;SDS011;58763;47.982;11.516;2023-03-26T07:22:19;11.00;;;2.80;;
71106;SDS011;58763;47.982;11.516;2023-03-26T07:24:47;7.93;;;2.00;;
71106;SDS011;58763;47.982;11.516;2023-03-26T07:29:47;5.50;;;1.90;;
71106;SDS011;58763;47.982;11.516;2023-03-26T07:41:16;3.60;;;1.02;;
71106;SDS011;58763;47.982;11.516;2023-03-26T07:46:33;6.05;;;1.30;;
71106;SDS011;58763;47.982;11.516;2023-03-26T07:49:01;3.85;;;1.10;;
71106;SDS011;58763;47.982;11.516;2023-03-26T07:51:28;7.18;;;1.20;;
71106;SDS011;58763;47.982;11.516;2023-03-26T07:53:55;3.50;;;0.98;;
71106;SDS011;58763;47.982;11.516;2023-03-26T07:56:34;6.25;;;1.23;;
71106;SDS011;58763;47.982;11.516;2023-03-26T08:01:38;4.75;;;1.40;;
71106;SDS011;58763;47.982;11.516;2023-03-26T08:04:40;4.20;;;1.25;;
71106;SDS011;58763;47.982;11.516;2023-03-26T08:12:46;5.20;;;1.65;;
71106;SDS011;58763;47.982;11.516;2023-03-26T08:18:03;5.65;;;1.30;;
71106;SDS011;58763;47.982;11.516;2023-03-26T08:21:00;4.18;;;1.13;;
71106;SDS011;58763;47.982;11.516;2023-03-26T08:23:38;6.53;;;1.30;;
71106;SDS011;58763;47.982;11.516;2023-03-26T08:31:42;3.85;;;1.05;;
71106;SDS011;58763;47.982;11.516;2023-03-26T08:34:11;5.18;;;1.00;;
71106;SDS011;58763;47.982;11.516;2023-03-26T08:36:38;8.25;;;4.50;;
71106;SDS011;58763;47.982;11.516;2023-03-26T08:39:04;4.43;;;1.33;;
71106;SDS011;58763;47.982;11.516;2023-03-26T09:06:49;6.00;;;1.85;;
71106;SDS011;58763;47.982;11.516;2023-03-26T09:33:52;4.80;;;1.52;;
71106;SDS011;58763;47.982;11.516;2023-03-26T09:41:41;10.32;;;3.25;;
71106;SDS011;58763;47.982;11.516;2023-03-26T10:08:10;5.78;;;1.30;;
71106;SDS011;58763;47.982;11.516;2023-03-26T10:27:51;5.03;;;1.60;;
71106;SDS011;58763;47.982;11.516;2023-03-26T10:33:38;4.65;;;1.42;;
71106;SDS011;58763;47.982;11.516;2023-03-26T10:44:54;3.33;;;1.10;;
71106;SDS011;58763;47.982;11.516;2023-03-26T10:50:31;4.97;;;1.00;;
71106;SDS011;58763;47.982;11.516;2023-03-26T10:53:14;2.33;;;0.82;;
71106;SDS011;58763;47.982;11.516;2023-03-26T10:55:52;5.90;;;1.05;;
71106;SDS011;58763;47.982;11.516;2023-03-26T10:58:26;5.05;;;0.95;;
71106;SDS011;58763;47.982;11.516;2023-03-26T11:06:39;2.67;;;1.08;;
71106;SDS011;58763;47.982;11.516;2023-03-26T11:11:57;5.80;;;2.03;;
71106;SDS011;58763;47.982;11.516;2023-03-26T11:14:45;4.45;;;1.55;;
71106;SDS011;58763;47.982;11.516;2023-03-26T11:17:39;4.68;;;1.90;;
71106;SDS011;58763;47.982;11.516;2023-03-26T11:20:16;15.57;;;11.02;;
71106;SDS011;58763;47.982;11.516;2023-03-26T11:25:43;8.82;;;5.13;;
71106;SDS011;58763;47.982;11.516;2023-03-26T11:28:35;10.18;;;5.95;;
71106;SDS011;58763;47.982;11.516;2023-03-26T11:33:42;9.27;;;4.68;;
71106;SDS011;58763;47.982;11.516;2023-03-26T11:36:13;8.45;;;6.00;;
71106;SDS011;58763;47.982;11.516;2023-03-26T11:38:50;17.73;;;10.05;;
71106;SDS011;58763;47.982;11.516;2023-03-26T11:41:25;21.20;;;11.30;;
71106;SDS011;58763;47.982;11.516;2023-03-26T11:43:56;16.98;;;8.85;;
71106;SDS011;58763;47.982;11.516;2023-03-26T11:46:30;4.85;;;2.00;;
71106;SDS011;58763;47.982;11.516;2023-03-26T11:49:02;5.73;;;2.60;;
71106;SDS011;58763;47.982;11.516;2023-03-26T11:51:34;6.85;;;4.38;;
71106;SDS011;58763;47.982;11.516;2023-03-26T11:54:02;6.85;;;2.67;;
71106;SDS011;58763;47.982;11.516;2023-03-26T11:56:30;4.53;;;1.80;;
71106;SDS011;58763;47.982;11.516;2023-03-26T11:59:04;3.40;;;1.75;;
71106;SDS011;58763;47.982;11.516;2023-03-26T12:01:49;4.82;;;2.00;;
71106;SDS011;58763;47.982;11.516;2023-03-26T12:04:42;6.18;;;2.58;;
71106;SDS011;58763;47.982;11.516;2023-03-26T12:07:17;8.52;;;2.42;;
71106;SDS011;58763;47.982;11.516;2023-03-26T12:09:52;7.35;;;3.60;;
71106;SDS011;58763;47.982;11.516;2023-03-26T12:12:38;6.53;;;3.25;;
71106;SDS011;58763;47.982;11.516;2023-03-26T12:15:16;7.18;;;4.72;;
71106;SDS011;58763;47.982;11.516;2023-03-26T12:17:44;5.60;;;3.60;;
71106;SDS011;58763;47.982;11.516;2023-03-26T12:22:47;5.35;;;2.20;;
71106;SDS011;58763;47.982;11.516;2023-03-26T12:25:20;5.93;;;3.15;;
71106;SDS011;58763;47.982;11.516;2023-03-26T12:30:37;7.55;;;3.60;;
71106;SDS011;58763;47.982;11.516;2023-03-26T12:33:05;4.05;;;2.00;;
71106;SDS011;58763;47.982;11.516;2023-03-26T12:35:40;4.60;;;1.90;;
71106;SDS011;58763;47.982;11.516;2023-03-26T12:38:23;24.63;;;10.07;;
71106;SDS011;58763;47.982;11.516;2023-03-26T12:43:41;5.65;;;2.83;;
71106;SDS011;58763;47.982;11.516;2023-03-26T12:46:25;6.97;;;3.67;;
71106;SDS011;58763;47.982;11.516;2023-03-26T12:48:58;7.35;;;3.53;;
71106;SDS011;58763;47.982;11.516;2023-03-26T13:19:06;16.00;;;9.70;;
71106;SDS011;58763;47.982;11.516;2023-03-26T13:24:47;7.32;;;4.63;;
71106;SDS011;58763;47.982;11.516;2023-03-26T13:27:40;18.35;;;13.77;;
71106;SDS011;58763;47.982;11.516;2023-03-26T13:30:33;8.63;;;5.15;;
71106;SDS011;58763;47.982;11.516;2023-03-26T13:46:40;24.88;;;11.13;;
71106;SDS011;58763;47.982;11.516;2023-03-26T13:49:10;10.20;;;6.40;;
71106;SDS011;58763;47.982;11.516;2023-03-26T13:54:43;4.80;;;2.60;;
71106;SDS011;58763;47.982;11.516;2023-03-26T13:57:17;3.83;;;1.63;;
71106;SDS011;58763;47.982;11.516;2023-03-26T14:02:29;6.00;;;2.97;;
71106;SDS011;58763;47.982;11.516;2023-03-26T14:07:45;7.85;;;3.33;;
71106;SDS011;58763;47.982;11.516;2023-03-26T14:10:22;9.85;;;5.40;;
71106;SDS011;58763;47.982;11.516;2023-03-26T14:15:54;10.25;;;6.07;;
71106;SDS011;58763;47.982;11.516;2023-03-26T14:26:39;17.50;;;8.85;;
71106;SDS011;58763;47.982;11.516;2023-03-26T14:40:29;9.32;;;6.72;;
71106;SDS011;58763;47.982;11.516;2023-03-26T14:43:12;4.18;;;2.10;;
71106;SDS011;58763;47.982;11.516;2023-03-26T14:54:25;5.22;;;3.10;;
71106;SDS011;58763;47.982;11.516;2023-03-26T15:18:55;1.45;;;0.63;;
71106;SDS011;58763;47.982;11.516;2023-03-26T15:24:32;1.73;;;0.60;;
71106;SDS011;58763;47.982;11.516;2023-03-26T15:27:30;2.33;;;0.63;;
71106;SDS011;58763;47.982;11.516;2023-03-26T15:33:31;1.35;;;0.50;;
71106;SDS011;58763;47.982;11.516;2023-03-26T15:39:12;2.40;;;0.60;;
71106;SDS011;58763;47.982;11.516;2023-03-26T15:41:55;1.98;;;0.68;;
71106;SDS011;58763;47.982;11.516;2023-03-26T15:50:34;1.05;;;0.30;;
71106;SDS011;58763;47.982;11.516;2023-03-26T15:55:42;1.15;;;0.43;;
71106;SDS011;58763;47.982;11.516;2023-03-26T15:58:30;1.85;;;0.47;;
71106;SDS011;58763;47.982;11.516;2023-03-26T16:06:52;2.17;;;0.50;;
71106;SDS011;58763;47.982;11.516;2023-03-26T16:17:13;1.38;;;0.50;;
71106;SDS011;58763;47.982;11.516;2023-03-26T16:19:56;1.58;;;0.32;;
71106;SDS011;58763;47.982;11.516;2023-03-26T16:25:28;1.98;;;0.47;;
71106;SDS011;58763;47.982;11.516;2023-03-26T16:28:07;2.60;;;0.50;;
71106;SDS011;58763;47.982;11.516;2023-03-26T16:33:46;1.55;;;0.68;;
71106;SDS011;58763;47.982;11.516;2023-03-26T16:36:22;1.90;;;0.40;;
71106;SDS011;58763;47.982;11.516;2023-03-26T16:41:25;3.05;;;0.32;;
71106;SDS011;58763;47.982;11.516;2023-03-26T16:55:17;2.97;;;0.70;;
71106;SDS011;58763;47.982;11.516;2023-03-26T16:57:54;2.60;;;0.60;;
71106;SDS011;58763;47.982;11.516;2023-03-26T17:00:46;1.95;;;0.68;;
71106;SDS011;58763;47.982;11.516;2023-03-26T17:09:16;4.03;;;0.90;;
71106;SDS011;58763;47.982;11.516;2023-03-26T17:12:17;3.08;;;0.60;;
71106;SDS011;58763;47.982;11.516;2023-03-26T17:31:33;1.42;;;0.50;;
71106;SDS011;58763;47.982;11.516;2023-03-26T17:35:06;0.93;;;0.40;;
71106;SDS011;58763;47.982;11.516;2023-03-26T17:37:03;1.33;;;0.60;;
71106;SDS011;58763;47.982;11.516;2023-03-26T17:44:43;2.35;;;0.60;;
71106;SDS011;58763;47.982;11.516;2023-03-26T17:47:23;0.90;;;0.40;;
71106;SDS011;58763;47.982;11.516;2023-03-26T17:52:52;1.33;;;0.43;;
71106;SDS011;58763;47.982;11.516;2023-03-26T17:55:21;1.00;;;0.30;;
71106;SDS011;58763;47.982;11.516;2023-03-26T17:57:58;0.90;;;0.38;;
71106;SDS011;58763;47.982;11.516;2023-03-26T18:00:49;0.63;;;0.30;;
71106;SDS011;58763;47.982;11.516;2023-03-26T18:05:52;2.17;;;0.45;;
71106;SDS011;58763;47.982;11.516;2023-03-26T18:08:42;1.38;;;0.25;;
71106;SDS011;58763;47.982;11.516;2023-03-26T18:14:31;1.63;;;0.30;;
71106;SDS011;58763;47.982;11.516;2023-03-26T18:17:09;2.28;;;0.30;;
71106;SDS011;58763;47.982;11.516;2023-03-26T18:19:47;1.65;;;0.40;;
71106;SDS011;58763;47.982;11.516;2023-03-26T18:22:18;0.65;;;0.35;;
71106;SDS011;58763;47.982;11.516;2023-03-26T18:24:48;1.60;;;0.50;;
71106;SDS011;58763;47.982;11.516;2023-03-26T18:27:14;1.15;;;0.40;;
71106;SDS011;58763;47.982;11.516;2023-03-26T18:29:44;1.70;;;0.40;;
71106;SDS011;58763;47.982;11.516;2023-03-26T18:32:23;1.05;;;0.30;;
71106;SDS011;58763;47.982;11.516;2023-03-26T18:35:34;0.95;;;0.30;;
71106;SDS011;58763;47.982;11.516;2023-03-26T18:37:44;0.80;;;0.30;;
71106;SDS011;58763;47.982;11.516;2023-03-26T18:40:16;1.65;;;0.40;;
71106;SDS011;58763;47.982;11.516;2023-03-26T18:42:56;1.08;;;0.35;;
71106;SDS011;58763;47.982;11.516;2023-03-26T18:45:36;1.58;;;0.40;;
71106;SDS011;58763;47.982;11.516;2023-03-26T18:48:17;1.30;;;0.40;;
71106;SDS011;58763;47.982;11.516;2023-03-26T18:50:59;1.50;;;0.30;;
71106;SDS011;58763;47.982;11.516;2023-03-26T18:53:28;2.17;;;0.47;;
71106;SDS011;58763;47.982;11.516;2023-03-26T18:55:56;1.67;;;0.60;;
71106;SDS011;58763;47.982;11.516;2023-03-26T18:58:32;2.25;;;0.73;;
71106;SDS011;58763;47.982;11.516;2023-03-26T19:01:07;1.20;;;0.50;;
71106;SDS011;58763;47.982;11.516;2023-03-26T19:03:37;1.40;;;0.50;;
71106;SDS011;58763;47.982;11.516;2023-03-26T19:06:09;2.03;;;0.55;;
71106;SDS011;58763;47.982;11.516;2023-03-26T19:08:38;1.27;;;0.43;;
71106;SDS011;58763;47.982;11.516;2023-03-26T19:11:06;1.10;;;0.50;;
71106;SDS011;58763;47.982;11.516;2023-03-26T19:13:34;0.68;;;0.30;;
71106;SDS011;58763;47.982;11.516;2023-03-26T19:16:05;1.17;;;0.40;;
71106;SDS011;58763;47.982;11.516;2023-03-26T19:18:40;1.35;;;0.43;;
71106;SDS011;58763;47.982;11.516;2023-03-26T19:21:06;0.93;;;0.35;;
71106;SDS011;58763;47.982;11.516;2023-03-26T19:23:35;1.50;;;0.47;;
71106;SDS011;58763;47.982;11.516;2023-03-26T19:26:05;1.27;;;0.35;;
71106;SDS011;58763;47.982;11.516;2023-03-26T19:28:43;1.52;;;0.60;;
71106;SDS011;58763;47.982;11.516;2023-03-26T19:33:54;2.40;;;0.55;;
71106;SDS011;58763;47.982;11.516;2023-03-26T19:36:23;2.38;;;0.50;;
71106;SDS011;58763;47.982;11.516;2023-03-26T19:39:13;1.42;;;0.50;;
71106;SDS011;58763;47.982;11.516;2023-03-26T19:41:39;0.90;;;0.50;;
71106;SDS011;58763;47.982;11.516;2023-03-26T19:44:17;1.02;;;0.40;;
71106;SDS011;58763;47.982;11.516;2023-03-26T19:46:45;1.50;;;0.45;;
71106;SDS011;58763;47.982;11.516;2023-03-26T19:52:13;1.10;;;0.50;;
71106;SDS011;58763;47.982;11.516;2023-03-26T19:54:45;1.20;;;0.65;;
71106;SDS011;58763;47.982;11.516;2023-03-26T19:57:18;1.52;;;0.75;;
71106;SDS011;58763;47.982;11.516;2023-03-26T19:59:46;1.40;;;0.50;;
71106;SDS011;58763;47.982;11.516;2023-03-26T20:02:12;1.38;;;0.50;;
71106;SDS011;58763;47.982;11.516;2023-03-26T20:04:40;1.35;;;0.50;;
71106;SDS011;58763;47.982;11.516;2023-03-26T20:07:27;1.27;;;0.50;;
71106;SDS011;58763;47.982;11.516;2023-03-26T20:09:53;1.30;;;0.50;;
71106;SDS011;58763;47.982;11.516;2023-03-26T20:12:19;1.33;;;0.52;;
71106;SDS011;58763;47.982;11.516;2023-03-26T20:14:45;1.58;;;0.50;;
71106;SDS011;58763;47.982;11.516;2023-03-26T20:17:16;0.88;;;0.40;;
71106;SDS011;58763;47.982;11.516;2023-03-26T20:19:45;1.33;;;0.40;;
71106;SDS011;58763;47.982;11.516;2023-03-26T20:22:15;2.60;;;0.40;;
71106;SDS011;58763;47.982;11.516;2023-03-26T20:24:44;1.40;;;0.45;;
71106;SDS011;58763;47.982;11.516;2023-03-26T20:27:10;1.20;;;0.50;;
71106;SDS011;58763;47.982;11.516;2023-03-26T20:29:38;1.25;;;0.50;;
71106;SDS011;58763;47.982;11.516;2023-03-26T20:32:16;1.35;;;0.57;;
71106;SDS011;58763;47.982;11.516;2023-03-26T20:34:44;1.00;;;0.40;;
71106;SDS011;58763;47.982;11.516;2023-03-26T20:37:14;2.00;;;0.40;;
71106;SDS011;58763;47.982;11.516;2023-03-26T20:39:42;2.70;;;0.60;;
71106;SDS011;58763;47.982;11.516;2023-03-26T20:42:08;1.30;;;0.43;;
71106;SDS011;58763;47.982;11.516;2023-03-26T20:44:34;1.27;;;0.50;;
71106;SDS011;58763;47.982;11.516;2023-03-26T20:47:01;0.60;;;0.30;;
71106;SDS011;58763;47.982;11.516;2023-03-26T20:49:26;0.82;;;0.40;;
71106;SDS011;58763;47.982;11.516;2023-03-26T20:51:53;0.90;;;0.35;;
71106;SDS011;58763;47.982;11.516;2023-03-26T20:54:21;0.50;;;0.30;;
71106;SDS011;58763;47.982;11.516;2023-03-26T20:56:48;1.13;;;0.40;;
71106;SDS011;58763;47.982;11.516;2023-03-26T20:59:24;1.60;;;0.50;;
71106;SDS011;58763;47.982;11.516;2023-03-26T21:01:51;1.67;;;0.50;;
71106;SDS011;58763;47.982;11.516;2023-03-26T21:04:19;0.70;;;0.35;;
71106;SDS011;58763;47.982;11.516;2023-03-26T21:06:45;0.90;;;0.30;;
71106;SDS011;58763;47.982;11.516;2023-03-26T21:09:12;0.88;;;0.40;;
71106;SDS011;58763;47.982;11.516;2023-03-26T21:11:52;1.02;;;0.40;;
71106;SDS011;58763;47.982;11.516;2023-03-26T21:14:38;0.60;;;0.40;;
71106;SDS011;58763;47.982;11.516;2023-03-26T21:17:07;0.93;;;0.40;;
71106;SDS011;58763;47.982;11.516;2023-03-26T21:19:38;0.80;;;0.32;;